sensor_id;sensor_type;location;lat;lon;timestamp;pressure;altitude;pressure_sealevel;temperature;humidity
55755;BME280;41674;52.290;-1.474;2023-04-05T00:01:07;101733.50;;;9.30;55.19
55755;BME280;41674;52.290;-1.474;2023-04-05T00:03:36;101728.45;;;9.34;54.81
55755;BME280;41674;52.290;-1.474;2023-04-05T00:06:06;101729.35;;;10.30;52.80
55755;BME280;41674;52.290;-1.474;2023-04-05T00:08:35;101729.19;;;9.62;53.58
55755;BME280;41674;52.290;-1.474;2023-04-05T00:11:04;101723.37;;;9.34;54.27
55755;BME280;41674;52.290;-1.474;2023-04-05T00:13:34;101720.80;;;9.82;53.23
55755;BME280;41674;52.290;-1.474;2023-04-05T00:16:03;101713.45;;;9.67;53.88
55755;BME280;41674;52.290;-1.474;2023-04-05T00:18:32;101707.93;;;9.77;53.55
55755;BME280;41674;52.290;-1.474;2023-04-05T00:21:01;101707.61;;;9.63;54.57
55755;BME280;41674;52.290;-1.474;2023-04-05T00:26:00;101702.99;;;8.66;57.53
55755;BME280;41674;52.290;-1.474;2023-04-05T00:28:29;101710.38;;;8.38;59.76
55755;BME280;41674;52.290;-1.474;2023-04-05T00:30:59;101707.40;;;6.39;67.23
55755;BME280;41674;52.290;-1.474;2023-04-05T00:33:28;101709.43;;;6.27;69.49
55755;BME280;41674;52.290;-1.474;2023-04-05T00:36:07;101703.13;;;8.58;62.49
55755;BME280;41674;52.290;-1.474;2023-04-05T00:38:27;101702.61;;;8.01;63.48
55755;BME280;41674;52.290;-1.474;2023-04-05T00:40:56;101697.07;;;8.64;62.77
55755;BME280;41674;52.290;-1.474;2023-04-05T00:43:26;101694.78;;;9.11;61.65
55755;BME280;41674;52.290;-1.474;2023-04-05T00:45:55;101694.28;;;9.09;61.38
55755;BME280;41674;52.290;-1.474;2023-04-05T00:48:25;101690.81;;;9.50;60.40
55755;BME280;41674;52.290;-1.474;2023-04-05T00:50:54;101686.87;;;9.39;59.78
55755;BME280;41674;52.290;-1.474;2023-04-05T00:53:23;101682.64;;;9.45;59.85
55755;BME280;41674;52.290;-1.474;2023-04-05T00:55:53;101677.78;;;9.27;60.32
55755;BME280;41674;52.290;-1.474;2023-04-05T00:58:22;101673.54;;;9.52;59.61
55755;BME280;41674;52.290;-1.474;2023-04-05T01:00:57;101675.07;;;8.90;62.50
55755;BME280;41674;52.290;-1.474;2023-04-05T01:03:22;101675.80;;;8.45;62.88
55755;BME280;41674;52.290;-1.474;2023-04-05T01:05:56;101666.19;;;8.50;63.24
55755;BME280;41674;52.290;-1.474;2023-04-05T01:08:28;101662.24;;;8.37;63.13
55755;BME280;41674;52.290;-1.474;2023-04-05T01:10:53;101664.65;;;8.92;62.53
55755;BME280;41674;52.290;-1.474;2023-04-05T01:13:25;101662.09;;;8.76;62.38
55755;BME280;41674;52.290;-1.474;2023-04-05T01:15:53;101664.83;;;7.89;65.37
55755;BME280;41674;52.290;-1.474;2023-04-05T01:18:18;101654.99;;;8.53;64.41
55755;BME280;41674;52.290;-1.474;2023-04-05T01:20:51;101658.23;;;8.62;64.98
55755;BME280;41674;52.290;-1.474;2023-04-05T01:25:59;101660.69;;;7.93;67.24
55755;BME280;41674;52.290;-1.474;2023-04-05T01:28:28;101651.67;;;9.11;63.19
55755;BME280;41674;52.290;-1.474;2023-04-05T01:30:48;101652.67;;;8.73;63.95
55755;BME280;41674;52.290;-1.474;2023-04-05T01:33:20;101655.81;;;8.01;66.09
55755;BME280;41674;52.290;-1.474;2023-04-05T01:35:50;101646.49;;;8.43;65.69
55755;BME280;41674;52.290;-1.474;2023-04-05T01:38:17;101641.01;;;8.75;65.49
55755;BME280;41674;52.290;-1.474;2023-04-05T01:40:43;101648.38;;;7.62;67.99
55755;BME280;41674;52.290;-1.474;2023-04-05T01:43:13;101637.77;;;8.77;65.22
55755;BME280;41674;52.290;-1.474;2023-04-05T01:45:42;101635.92;;;8.62;65.13
55755;BME280;41674;52.290;-1.474;2023-04-05T01:48:12;101634.48;;;8.83;64.42
55755;BME280;41674;52.290;-1.474;2023-04-05T01:50:42;101629.15;;;9.03;62.10
55755;BME280;41674;52.290;-1.474;2023-04-05T01:53:10;101626.30;;;8.67;65.23
55755;BME280;41674;52.290;-1.474;2023-04-05T01:55:40;101626.40;;;8.76;64.91
55755;BME280;41674;52.290;-1.474;2023-04-05T01:58:10;101629.15;;;7.78;68.43
55755;BME280;41674;52.290;-1.474;2023-04-05T02:00:39;101625.97;;;8.12;68.02
55755;BME280;41674;52.290;-1.474;2023-04-05T02:03:09;101629.72;;;7.69;69.87
55755;BME280;41674;52.290;-1.474;2023-04-05T02:05:38;101630.41;;;8.20;68.90
55755;BME280;41674;52.290;-1.474;2023-04-05T02:08:07;101617.36;;;8.34;67.37
55755;BME280;41674;52.290;-1.474;2023-04-05T02:10:36;101618.23;;;8.51;66.94
55755;BME280;41674;52.290;-1.474;2023-04-05T02:13:06;101615.69;;;8.27;66.20
55755;BME280;41674;52.290;-1.474;2023-04-05T02:15:36;101608.97;;;8.67;65.45
55755;BME280;41674;52.290;-1.474;2023-04-05T02:18:05;101604.86;;;8.55;65.25
55755;BME280;41674;52.290;-1.474;2023-04-05T02:20:35;101611.06;;;7.36;67.61
55755;BME280;41674;52.290;-1.474;2023-04-05T02:23:04;101607.75;;;7.35;68.39
55755;BME280;41674;52.290;-1.474;2023-04-05T02:25:33;101599.32;;;7.77;67.36
55755;BME280;41674;52.290;-1.474;2023-04-05T02:28:02;101599.54;;;8.05;67.01
55755;BME280;41674;52.290;-1.474;2023-04-05T02:30:32;101604.73;;;7.52;67.18
55755;BME280;41674;52.290;-1.474;2023-04-05T02:33:00;101598.57;;;7.95;67.06
55755;BME280;41674;52.290;-1.474;2023-04-05T02:35:30;101600.68;;;8.43;66.59
55755;BME280;41674;52.290;-1.474;2023-04-05T02:37:59;101597.37;;;8.01;67.03
55755;BME280;41674;52.290;-1.474;2023-04-05T02:40:28;101592.03;;;8.60;64.90
55755;BME280;41674;52.290;-1.474;2023-04-05T02:42:58;101592.64;;;8.68;64.51
55755;BME280;41674;52.290;-1.474;2023-04-05T02:45:27;101592.30;;;7.70;65.38
55755;BME280;41674;52.290;-1.474;2023-04-05T02:47:56;101587.28;;;8.33;64.87
55755;BME280;41674;52.290;-1.474;2023-04-05T02:50:25;101584.62;;;8.76;63.35
55755;BME280;41674;52.290;-1.474;2023-04-05T02:52:55;101586.14;;;9.18;62.24
55755;BME280;41674;52.290;-1.474;2023-04-05T02:55:24;101585.64;;;9.26;61.96
55755;BME280;41674;52.290;-1.474;2023-04-05T02:57:57;101584.23;;;9.41;61.88
55755;BME280;41674;52.290;-1.474;2023-04-05T03:00:23;101586.71;;;9.29;63.01
55755;BME280;41674;52.290;-1.474;2023-04-05T03:02:52;101584.79;;;9.42;61.12
55755;BME280;41674;52.290;-1.474;2023-04-05T03:05:22;101582.37;;;9.05;61.72
55755;BME280;41674;52.290;-1.474;2023-04-05T03:07:51;101582.42;;;9.65;60.98
55755;BME280;41674;52.290;-1.474;2023-04-05T03:10:21;101577.43;;;9.43;60.89
55755;BME280;41674;52.290;-1.474;2023-04-05T03:12:50;101574.82;;;9.34;60.78
55755;BME280;41674;52.290;-1.474;2023-04-05T03:15:19;101575.25;;;9.53;59.77
55755;BME280;41674;52.290;-1.474;2023-04-05T03:17:49;101576.12;;;8.65;61.87
55755;BME280;41674;52.290;-1.474;2023-04-05T03:20:18;101572.94;;;8.91;61.85
55755;BME280;41674;52.290;-1.474;2023-04-05T03:22:48;101571.65;;;9.29;61.14
55755;BME280;41674;52.290;-1.474;2023-04-05T03:25:18;101573.39;;;9.39;60.80
55755;BME280;41674;52.290;-1.474;2023-04-05T03:27:47;101575.22;;;8.68;62.72
55755;BME280;41674;52.290;-1.474;2023-04-05T03:30:16;101574.77;;;8.96;62.33
55755;BME280;41674;52.290;-1.474;2023-04-05T03:32:45;101573.58;;;9.18;61.79
55755;BME280;41674;52.290;-1.474;2023-04-05T03:35:15;101573.61;;;8.88;61.42
55755;BME280;41674;52.290;-1.474;2023-04-05T03:37:44;101565.71;;;8.88;61.64
55755;BME280;41674;52.290;-1.474;2023-04-05T03:40:13;101563.57;;;9.38;60.86
55755;BME280;41674;52.290;-1.474;2023-04-05T03:42:43;101560.96;;;9.06;61.54
55755;BME280;41674;52.290;-1.474;2023-04-05T03:45:13;101556.29;;;8.40;62.95
55755;BME280;41674;52.290;-1.474;2023-04-05T03:47:42;101558.09;;;8.65;62.07
55755;BME280;41674;52.290;-1.474;2023-04-05T03:50:11;101554.47;;;9.13;61.54
55755;BME280;41674;52.290;-1.474;2023-04-05T03:52:41;101548.89;;;9.30;61.36
55755;BME280;41674;52.290;-1.474;2023-04-05T03:55:10;101547.03;;;9.06;61.62
55755;BME280;41674;52.290;-1.474;2023-04-05T03:57:41;101545.35;;;9.44;60.69
55755;BME280;41674;52.290;-1.474;2023-04-05T04:00:10;101543.08;;;9.34;61.07
55755;BME280;41674;52.290;-1.474;2023-04-05T04:02:42;101541.52;;;9.37;61.03
55755;BME280;41674;52.290;-1.474;2023-04-05T04:05:09;101537.60;;;8.73;62.12
55755;BME280;41674;52.290;-1.474;2023-04-05T04:07:38;101530.80;;;8.04;65.16
55755;BME280;41674;52.290;-1.474;2023-04-05T04:10:10;101529.54;;;8.51;65.74
55755;BME280;41674;52.290;-1.474;2023-04-05T04:12:37;101528.21;;;8.58;63.03
55755;BME280;41674;52.290;-1.474;2023-04-05T04:15:09;101524.41;;;8.79;62.55
55755;BME280;41674;52.290;-1.474;2023-04-05T04:17:37;101522.97;;;9.05;62.12
55755;BME280;41674;52.290;-1.474;2023-04-05T04:20:07;101524.17;;;8.34;64.00
55755;BME280;41674;52.290;-1.474;2023-04-05T04:22:35;101522.00;;;9.07;62.11
55755;BME280;41674;52.290;-1.474;2023-04-05T04:25:05;101517.29;;;8.84;62.82
55755;BME280;41674;52.290;-1.474;2023-04-05T04:27:34;101516.59;;;8.76;62.24
55755;BME280;41674;52.290;-1.474;2023-04-05T04:30:06;101515.77;;;8.64;63.45
55755;BME280;41674;52.290;-1.474;2023-04-05T04:32:33;101514.24;;;8.75;63.14
55755;BME280;41674;52.290;-1.474;2023-04-05T04:35:02;101518.50;;;7.27;68.27
55755;BME280;41674;52.290;-1.474;2023-04-05T04:37:32;101512.62;;;8.10;65.45
55755;BME280;41674;52.290;-1.474;2023-04-05T04:40:02;101511.05;;;8.62;64.45
55755;BME280;41674;52.290;-1.474;2023-04-05T04:42:31;101504.68;;;9.10;62.63
55755;BME280;41674;52.290;-1.474;2023-04-05T04:45:00;101499.11;;;8.76;63.90
55755;BME280;41674;52.290;-1.474;2023-04-05T04:47:31;101497.29;;;9.21;62.50
55755;BME280;41674;52.290;-1.474;2023-04-05T04:49:59;101498.89;;;8.16;64.33
55755;BME280;41674;52.290;-1.474;2023-04-05T04:52:29;101497.02;;;8.98;62.53
55755;BME280;41674;52.290;-1.474;2023-04-05T04:54:59;101495.23;;;8.90;61.47
55755;BME280;41674;52.290;-1.474;2023-04-05T04:57:28;101493.93;;;8.88;62.25
55755;BME280;41674;52.290;-1.474;2023-04-05T04:59:57;101495.13;;;8.77;63.06
55755;BME280;41674;52.290;-1.474;2023-04-05T05:02:27;101496.35;;;8.41;63.77
55755;BME280;41674;52.290;-1.474;2023-04-05T05:04:56;101499.14;;;8.38;64.02
55755;BME280;41674;52.290;-1.474;2023-04-05T05:07:25;101499.14;;;8.88;62.08
55755;BME280;41674;52.290;-1.474;2023-04-05T05:09:55;101497.70;;;8.63;62.32
55755;BME280;41674;52.290;-1.474;2023-04-05T05:12:24;101500.73;;;8.91;61.77
55755;BME280;41674;52.290;-1.474;2023-04-05T05:14:54;101500.43;;;8.69;61.56
55755;BME280;41674;52.290;-1.474;2023-04-05T05:17:24;101500.17;;;8.19;64.53
55755;BME280;41674;52.290;-1.474;2023-04-05T05:19:53;101502.39;;;8.06;62.58
55755;BME280;41674;52.290;-1.474;2023-04-05T05:22:23;101502.19;;;7.70;63.86
55755;BME280;41674;52.290;-1.474;2023-04-05T05:24:52;101506.11;;;8.24;61.78
55755;BME280;41674;52.290;-1.474;2023-04-05T05:27:22;101507.29;;;8.87;61.54
55755;BME280;41674;52.290;-1.474;2023-04-05T05:29:50;101506.14;;;8.32;62.04
55755;BME280;41674;52.290;-1.474;2023-04-05T05:32:20;101504.57;;;8.03;63.91
55755;BME280;41674;52.290;-1.474;2023-04-05T05:34:50;101506.66;;;7.67;64.22
55755;BME280;41674;52.290;-1.474;2023-04-05T05:37:27;101502.78;;;8.20;63.23
55755;BME280;41674;52.290;-1.474;2023-04-05T05:39:48;101505.00;;;8.20;62.90
55755;BME280;41674;52.290;-1.474;2023-04-05T05:42:18;101504.74;;;8.24;62.81
55755;BME280;41674;52.290;-1.474;2023-04-05T05:44:47;101508.84;;;7.81;63.89
55755;BME280;41674;52.290;-1.474;2023-04-05T05:47:21;101503.82;;;8.16;63.94
55755;BME280;41674;52.290;-1.474;2023-04-05T05:49:46;101503.56;;;7.75;63.78
55755;BME280;41674;52.290;-1.474;2023-04-05T05:52:15;101504.12;;;8.42;63.32
55755;BME280;41674;52.290;-1.474;2023-04-05T05:54:45;101502.63;;;8.16;63.69
55755;BME280;41674;52.290;-1.474;2023-04-05T05:57:14;101505.31;;;7.93;64.22
55755;BME280;41674;52.290;-1.474;2023-04-05T05:59:43;101508.56;;;7.70;65.39
55755;BME280;41674;52.290;-1.474;2023-04-05T06:02:13;101509.62;;;7.76;65.38
55755;BME280;41674;52.290;-1.474;2023-04-05T06:04:42;101506.44;;;7.28;66.91
55755;BME280;41674;52.290;-1.474;2023-04-05T06:07:11;101510.02;;;6.92;68.41
55755;BME280;41674;52.290;-1.474;2023-04-05T06:09:40;101508.42;;;7.31;68.69
55755;BME280;41674;52.290;-1.474;2023-04-05T06:12:10;101502.92;;;7.36;67.99
55755;BME280;41674;52.290;-1.474;2023-04-05T06:14:39;101498.71;;;7.97;66.83
55755;BME280;41674;52.290;-1.474;2023-04-05T06:17:08;101501.57;;;7.49;67.57
55755;BME280;41674;52.290;-1.474;2023-04-05T06:19:38;101501.14;;;7.45;68.62
55755;BME280;41674;52.290;-1.474;2023-04-05T06:22:07;101499.26;;;7.49;68.34
55755;BME280;41674;52.290;-1.474;2023-04-05T06:24:36;101493.72;;;7.26;69.00
55755;BME280;41674;52.290;-1.474;2023-04-05T06:27:05;101493.65;;;6.90;71.27
55755;BME280;41674;52.290;-1.474;2023-04-05T06:29:34;101490.37;;;7.45;69.47
55755;BME280;41674;52.290;-1.474;2023-04-05T06:32:04;101492.19;;;7.57;70.20
55755;BME280;41674;52.290;-1.474;2023-04-05T06:34:34;101490.70;;;7.73;69.54
55755;BME280;41674;52.290;-1.474;2023-04-05T06:37:02;101485.10;;;7.82;68.69
55755;BME280;41674;52.290;-1.474;2023-04-05T06:39:32;101484.14;;;8.02;67.36
55755;BME280;41674;52.290;-1.474;2023-04-05T06:42:02;101482.14;;;7.96;67.71
55755;BME280;41674;52.290;-1.474;2023-04-05T06:44:31;101482.59;;;7.69;69.47
55755;BME280;41674;52.290;-1.474;2023-04-05T06:47:01;101486.80;;;7.24;71.22
55755;BME280;41674;52.290;-1.474;2023-04-05T06:49:30;101482.02;;;7.77;69.92
55755;BME280;41674;52.290;-1.474;2023-04-05T06:51:59;101483.56;;;7.59;70.59
55755;BME280;41674;52.290;-1.474;2023-04-05T06:54:29;101482.81;;;7.91;70.80
55755;BME280;41674;52.290;-1.474;2023-04-05T06:56:58;101480.42;;;7.64;71.70
55755;BME280;41674;52.290;-1.474;2023-04-05T06:59:28;101483.99;;;7.35;71.75
55755;BME280;41674;52.290;-1.474;2023-04-05T07:01:58;101483.23;;;7.14;71.90
55755;BME280;41674;52.290;-1.474;2023-04-05T07:04:27;101488.02;;;6.98;75.63
55755;BME280;41674;52.290;-1.474;2023-04-05T07:06:57;101489.04;;;6.95;75.22
55755;BME280;41674;52.290;-1.474;2023-04-05T07:09:26;101487.32;;;7.56;74.05
55755;BME280;41674;52.290;-1.474;2023-04-05T07:11:56;101490.88;;;7.21;75.94
55755;BME280;41674;52.290;-1.474;2023-04-05T07:14:27;101489.26;;;7.61;74.88
55755;BME280;41674;52.290;-1.474;2023-04-05T07:16:56;101490.12;;;6.86;76.59
55755;BME280;41674;52.290;-1.474;2023-04-05T07:19:26;101491.44;;;6.81;77.74
55755;BME280;41674;52.290;-1.474;2023-04-05T07:21:55;101491.21;;;7.05;78.07
55755;BME280;41674;52.290;-1.474;2023-04-05T07:24:25;101493.03;;;7.07;77.44
55755;BME280;41674;52.290;-1.474;2023-04-05T07:26:55;101496.28;;;5.77;80.77
55755;BME280;41674;52.290;-1.474;2023-04-05T07:29:24;101488.35;;;7.41;76.61
55755;BME280;41674;52.290;-1.474;2023-04-05T07:31:54;101489.60;;;6.50;80.15
55755;BME280;41674;52.290;-1.474;2023-04-05T07:34:24;101489.12;;;6.61;80.18
55755;BME280;41674;52.290;-1.474;2023-04-05T07:36:53;101487.66;;;7.61;77.41
55755;BME280;41674;52.290;-1.474;2023-04-05T07:39:22;101486.70;;;7.55;77.39
55755;BME280;41674;52.290;-1.474;2023-04-05T07:41:52;101484.08;;;7.64;75.94
55755;BME280;41674;52.290;-1.474;2023-04-05T07:44:21;101486.78;;;6.90;78.57
55755;BME280;41674;52.290;-1.474;2023-04-05T07:46:50;101484.46;;;7.41;78.64
55755;BME280;41674;52.290;-1.474;2023-04-05T07:49:24;101473.32;;;8.04;75.69
55755;BME280;41674;52.290;-1.474;2023-04-05T07:51:53;101473.63;;;7.67;77.01
55755;BME280;41674;52.290;-1.474;2023-04-05T07:54:19;101471.55;;;7.65;75.67
55755;BME280;41674;52.290;-1.474;2023-04-05T07:56:50;101478.32;;;7.37;77.98
55755;BME280;41674;52.290;-1.474;2023-04-05T07:59:19;101470.90;;;8.19;75.70
55755;BME280;41674;52.290;-1.474;2023-04-05T08:01:48;101473.02;;;7.93;74.46
55755;BME280;41674;52.290;-1.474;2023-04-05T08:04:23;101473.47;;;8.01;75.51
55755;BME280;41674;52.290;-1.474;2023-04-05T08:06:47;101471.56;;;8.62;74.06
55755;BME280;41674;52.290;-1.474;2023-04-05T08:09:16;101470.72;;;8.96;73.46
55755;BME280;41674;52.290;-1.474;2023-04-05T08:11:47;101470.07;;;8.71;73.47
55755;BME280;41674;52.290;-1.474;2023-04-05T08:14:15;101465.62;;;8.81;73.08
55755;BME280;41674;52.290;-1.474;2023-04-05T08:19:13;101462.03;;;9.33;72.82
55755;BME280;41674;52.290;-1.474;2023-04-05T08:21:42;101462.80;;;8.99;73.33
55755;BME280;41674;52.290;-1.474;2023-04-05T08:24:12;101461.55;;;9.01;73.03
55755;BME280;41674;52.290;-1.474;2023-04-05T08:26:41;101459.54;;;9.14;73.77
55755;BME280;41674;52.290;-1.474;2023-04-05T08:29:11;101456.10;;;8.49;75.13
55755;BME280;41674;52.290;-1.474;2023-04-05T08:31:40;101454.77;;;8.53;74.43
55755;BME280;41674;52.290;-1.474;2023-04-05T08:34:09;101451.37;;;8.19;76.60
55755;BME280;41674;52.290;-1.474;2023-04-05T08:36:38;101455.47;;;8.71;75.97
55755;BME280;41674;52.290;-1.474;2023-04-05T08:39:08;101455.16;;;9.19;74.84
55755;BME280;41674;52.290;-1.474;2023-04-05T08:41:40;101452.58;;;9.15;73.75
55755;BME280;41674;52.290;-1.474;2023-04-05T08:44:08;101452.01;;;9.45;73.71
55755;BME280;41674;52.290;-1.474;2023-04-05T08:46:37;101453.42;;;8.17;77.74
55755;BME280;41674;52.290;-1.474;2023-04-05T08:49:07;101453.27;;;8.82;78.18
55755;BME280;41674;52.290;-1.474;2023-04-05T08:51:36;101450.79;;;9.70;74.94
55755;BME280;41674;52.290;-1.474;2023-04-05T08:54:05;101455.73;;;8.81;76.13
55755;BME280;41674;52.290;-1.474;2023-04-05T08:56:34;101456.44;;;8.95;77.78
55755;BME280;41674;52.290;-1.474;2023-04-05T08:59:04;101453.03;;;9.20;76.42
55755;BME280;41674;52.290;-1.474;2023-04-05T09:01:34;101459.34;;;8.58;78.18
55755;BME280;41674;52.290;-1.474;2023-04-05T09:04:05;101457.54;;;8.55;77.53
55755;BME280;41674;52.290;-1.474;2023-04-05T09:06:31;101461.14;;;7.67;81.80
55755;BME280;41674;52.290;-1.474;2023-04-05T09:09:05;101455.43;;;8.50;79.46
55755;BME280;41674;52.290;-1.474;2023-04-05T09:11:35;101451.31;;;8.27;80.68
55755;BME280;41674;52.290;-1.474;2023-04-05T09:14:02;101446.75;;;8.25;81.45
55755;BME280;41674;52.290;-1.474;2023-04-05T09:16:30;101445.91;;;7.79;82.74
55755;BME280;41674;52.290;-1.474;2023-04-05T09:18:58;101444.57;;;8.98;81.04
55755;BME280;41674;52.290;-1.474;2023-04-05T09:21:28;101440.53;;;9.61;78.64
55755;BME280;41674;52.290;-1.474;2023-04-05T09:23:58;101444.84;;;8.97;79.06
55755;BME280;41674;52.290;-1.474;2023-04-05T09:26:28;101442.55;;;9.08;76.77
55755;BME280;41674;52.290;-1.474;2023-04-05T09:28:57;101443.95;;;9.34;76.82
55755;BME280;41674;52.290;-1.474;2023-04-05T09:31:31;101443.89;;;10.24;74.95
55755;BME280;41674;52.290;-1.474;2023-04-05T09:33:58;101447.23;;;8.90;77.04
55755;BME280;41674;52.290;-1.474;2023-04-05T09:36:26;101447.40;;;8.98;78.80
55755;BME280;41674;52.290;-1.474;2023-04-05T09:39:05;101446.92;;;8.53;79.86
55755;BME280;41674;52.290;-1.474;2023-04-05T09:41:25;101446.31;;;8.30;82.81
55755;BME280;41674;52.290;-1.474;2023-04-05T09:43:54;101445.27;;;8.79;81.10
55755;BME280;41674;52.290;-1.474;2023-04-05T09:46:30;101444.22;;;7.79;86.08
55755;BME280;41674;52.290;-1.474;2023-04-05T09:48:54;101438.33;;;9.14;82.65
55755;BME280;41674;52.290;-1.474;2023-04-05T09:51:23;101435.74;;;9.19;79.68
55755;BME280;41674;52.290;-1.474;2023-04-05T09:53:59;101433.07;;;9.73;79.71
55755;BME280;41674;52.290;-1.474;2023-04-05T09:56:22;101431.67;;;9.61;77.36
55755;BME280;41674;52.290;-1.474;2023-04-05T09:58:51;101433.07;;;9.54;77.48
55755;BME280;41674;52.290;-1.474;2023-04-05T10:01:21;101430.71;;;9.94;77.94
55755;BME280;41674;52.290;-1.474;2023-04-05T10:03:50;101433.97;;;9.39;76.56
55755;BME280;41674;52.290;-1.474;2023-04-05T10:06:19;101439.08;;;9.04;76.62
55755;BME280;41674;52.290;-1.474;2023-04-05T10:08:49;101442.45;;;8.55;80.46
55755;BME280;41674;52.290;-1.474;2023-04-05T10:11:19;101442.06;;;8.31;82.16
55755;BME280;41674;52.290;-1.474;2023-04-05T10:13:49;101441.56;;;8.25;82.34
55755;BME280;41674;52.290;-1.474;2023-04-05T10:16:25;101445.16;;;8.01;84.19
55755;BME280;41674;52.290;-1.474;2023-04-05T10:18:50;101446.22;;;8.23;83.29
55755;BME280;41674;52.290;-1.474;2023-04-05T10:21:21;101444.57;;;8.20;81.77
55755;BME280;41674;52.290;-1.474;2023-04-05T10:23:50;101439.89;;;9.47;79.07
55755;BME280;41674;52.290;-1.474;2023-04-05T10:26:22;101438.65;;;8.93;81.02
55755;BME280;41674;52.290;-1.474;2023-04-05T10:28:47;101431.95;;;9.63;79.99
55755;BME280;41674;52.290;-1.474;2023-04-05T10:31:20;101429.08;;;9.82;77.58
55755;BME280;41674;52.290;-1.474;2023-04-05T10:33:46;101429.72;;;10.13;75.81
55755;BME280;41674;52.290;-1.474;2023-04-05T10:36:20;101431.30;;;10.05;75.97
55755;BME280;41674;52.290;-1.474;2023-04-05T10:38:50;101432.11;;;9.28;80.45
55755;BME280;41674;52.290;-1.474;2023-04-05T10:41:13;101429.14;;;9.41;81.12
55755;BME280;41674;52.290;-1.474;2023-04-05T10:43:43;101423.49;;;9.07;83.41
55755;BME280;41674;52.290;-1.474;2023-04-05T10:46:13;101425.98;;;8.86;85.46
55755;BME280;41674;52.290;-1.474;2023-04-05T10:48:47;101417.49;;;9.60;85.57
55755;BME280;41674;52.290;-1.474;2023-04-05T10:51:11;101421.61;;;8.31;87.38
55755;BME280;41674;52.290;-1.474;2023-04-05T10:53:41;101416.95;;;8.64;87.26
55755;BME280;41674;52.290;-1.474;2023-04-05T10:56:11;101415.29;;;8.42;90.45
55755;BME280;41674;52.290;-1.474;2023-04-05T10:58:40;101411.66;;;9.16;86.62
55755;BME280;41674;52.290;-1.474;2023-04-05T11:01:09;101413.82;;;8.83;89.21
55755;BME280;41674;52.290;-1.474;2023-04-05T11:03:45;101410.82;;;9.40;87.64
55755;BME280;41674;52.290;-1.474;2023-04-05T11:06:19;101408.35;;;8.98;87.05
55755;BME280;41674;52.290;-1.474;2023-04-05T11:08:41;101408.42;;;9.39;87.31
55755;BME280;41674;52.290;-1.474;2023-04-05T11:11:06;101408.97;;;9.33;89.40
55755;BME280;41674;52.290;-1.474;2023-04-05T11:16:08;101402.19;;;9.53;85.04
55755;BME280;41674;52.290;-1.474;2023-04-05T11:18:43;101399.83;;;9.85;82.58
55755;BME280;41674;52.290;-1.474;2023-04-05T11:21:05;101397.57;;;10.18;84.64
55755;BME280;41674;52.290;-1.474;2023-04-05T11:26:04;101394.59;;;10.10;83.46
55755;BME280;41674;52.290;-1.474;2023-04-05T11:28:35;101394.08;;;10.50;83.22
55755;BME280;41674;52.290;-1.474;2023-04-05T11:31:12;101386.98;;;9.01;87.05
55755;BME280;41674;52.290;-1.474;2023-04-05T11:33:37;101384.90;;;9.47;85.83
55755;BME280;41674;52.290;-1.474;2023-04-05T11:36:00;101389.84;;;9.18;86.19
55755;BME280;41674;52.290;-1.474;2023-04-05T11:38:30;101388.41;;;9.17;88.30
55755;BME280;41674;52.290;-1.474;2023-04-05T11:41:11;101382.43;;;8.94;85.99
55755;BME280;41674;52.290;-1.474;2023-04-05T11:43:29;101383.88;;;8.48;88.54
55755;BME280;41674;52.290;-1.474;2023-04-05T11:46:01;101382.26;;;8.52;89.46
55755;BME280;41674;52.290;-1.474;2023-04-05T11:48:28;101378.86;;;8.40;89.56
55755;BME280;41674;52.290;-1.474;2023-04-05T11:50:57;101377.25;;;8.93;88.34
55755;BME280;41674;52.290;-1.474;2023-04-05T11:53:26;101380.97;;;8.45;89.48
55755;BME280;41674;52.290;-1.474;2023-04-05T11:56:05;101382.92;;;8.38;90.53
55755;BME280;41674;52.290;-1.474;2023-04-05T11:58:25;101378.08;;;8.40;90.35
55755;BME280;41674;52.290;-1.474;2023-04-05T12:00:58;101377.05;;;8.60;91.02
55755;BME280;41674;52.290;-1.474;2023-04-05T12:03:26;101368.49;;;9.35;87.16
55755;BME280;41674;52.290;-1.474;2023-04-05T12:05:56;101363.24;;;8.95;87.21
55755;BME280;41674;52.290;-1.474;2023-04-05T12:08:37;101361.22;;;9.51;84.40
55755;BME280;41674;52.290;-1.474;2023-04-05T12:10:54;101358.33;;;9.31;82.49
55755;BME280;41674;52.290;-1.474;2023-04-05T12:13:25;101352.82;;;9.17;84.99
55755;BME280;41674;52.290;-1.474;2023-04-05T12:15:52;101351.83;;;9.48;85.72
55755;BME280;41674;52.290;-1.474;2023-04-05T12:18:21;101358.53;;;8.24;90.72
55755;BME280;41674;52.290;-1.474;2023-04-05T12:20:51;101350.66;;;8.79;89.05
55755;BME280;41674;52.290;-1.474;2023-04-05T12:23:20;101345.11;;;9.51;86.27
55755;BME280;41674;52.290;-1.474;2023-04-05T12:25:51;101348.98;;;8.59;88.43
55755;BME280;41674;52.290;-1.474;2023-04-05T12:28:19;101344.90;;;9.43;89.34
55755;BME280;41674;52.290;-1.474;2023-04-05T12:30:49;101339.81;;;9.20;87.49
55755;BME280;41674;52.290;-1.474;2023-04-05T12:33:26;101341.67;;;9.16;86.42
55755;BME280;41674;52.290;-1.474;2023-04-05T12:35:50;101343.76;;;9.56;84.94
55755;BME280;41674;52.290;-1.474;2023-04-05T12:38:17;101344.80;;;9.55;85.12
55755;BME280;41674;52.290;-1.474;2023-04-05T12:40:46;101346.17;;;9.87;84.33
55755;BME280;41674;52.290;-1.474;2023-04-05T12:43:15;101343.57;;;9.62;85.55
55755;BME280;41674;52.290;-1.474;2023-04-05T12:45:45;101338.15;;;8.58;88.80
55755;BME280;41674;52.290;-1.474;2023-04-05T12:48:19;101343.28;;;9.94;85.02
55755;BME280;41674;52.290;-1.474;2023-04-05T12:50:45;101335.02;;;9.23;85.79
55755;BME280;41674;52.290;-1.474;2023-04-05T12:53:16;101333.08;;;9.84;85.69
55755;BME280;41674;52.290;-1.474;2023-04-05T12:55:47;101327.44;;;10.26;83.84
55755;BME280;41674;52.290;-1.474;2023-04-05T12:58:12;101328.63;;;8.97;90.37
55755;BME280;41674;52.290;-1.474;2023-04-05T13:00:43;101325.88;;;9.77;89.92
55755;BME280;41674;52.290;-1.474;2023-04-05T13:03:15;101322.73;;;9.15;91.70
55755;BME280;41674;52.290;-1.474;2023-04-05T13:05:40;101323.79;;;8.61;93.05
55755;BME280;41674;52.290;-1.474;2023-04-05T13:08:09;101323.67;;;9.14;90.18
55755;BME280;41674;52.290;-1.474;2023-04-05T13:10:38;101316.43;;;9.30;90.64
55755;BME280;41674;52.290;-1.474;2023-04-05T13:13:08;101313.89;;;9.21;90.44